createdAt,value
2023-03-19T19:03:29.752Z,151.70
2023-03-19T19:05:56.828Z,175.20
2023-03-19T19:08:25.632Z,167.70
2023-03-19T19:10:59.050Z,186.70
2023-03-19T19:13:30.570Z,187.10
2023-03-19T19:15:57.815Z,217.50
2023-03-19T19:18:30.024Z,186.60
2023-03-19T19:21:00.265Z,175.10
2023-03-19T19:23:27.754Z,168.40
2023-03-19T19:25:56.412Z,163.80
2023-03-19T19:28:30.850Z,185.40
2023-03-19T19:30:59.927Z,194.70
2023-03-19T19:33:31.962Z,179.80
2023-03-19T19:35:59.288Z,182.00
2023-03-19T19:38:26.763Z,178.90
2023-03-19T19:40:56.746Z,162.60
2023-03-19T19:45:54.870Z,146.40
2023-03-19T19:50:55.383Z,135.20
2023-03-19T19:53:25.444Z,132.50
2023-03-19T19:55:53.357Z,134.10
2023-03-19T19:58:27.350Z,119.40
2023-03-19T20:01:03.338Z,126.30
2023-03-19T20:03:33.302Z,125.40
2023-03-19T20:06:01.681Z,128.00
2023-03-19T20:08:29.078Z,121.10
2023-03-19T20:10:57.227Z,125.20
2023-03-19T20:13:29.268Z,131.90
2023-03-19T20:15:58.883Z,133.10
2023-03-19T20:18:32.269Z,128.30
2023-03-19T20:20:59.789Z,117.20
2023-03-19T20:23:27.083Z,105.70
2023-03-19T20:25:55.392Z,107.90
2023-03-19T20:28:32.601Z,101.80
2023-03-19T20:31:01.354Z,105.70
2023-03-19T20:33:31.559Z,93.70
2023-03-19T20:35:58.948Z,94.70
2023-03-19T20:38:27.650Z,100.70
2023-03-19T20:40:57.207Z,102.30
2023-03-19T20:43:33.973Z,101.00
2023-03-19T20:46:04.592Z,98.60
2023-03-19T20:48:33.023Z,102.00
2023-03-19T20:51:01.672Z,97.30
2023-03-19T20:53:29.155Z,100.90
2023-03-19T20:55:56.765Z,93.20
2023-03-19T20:58:34.762Z,84.00
2023-03-19T21:01:03.136Z,82.50
2023-03-19T21:03:32.771Z,83.20
2023-03-19T21:06:07.621Z,87.10
2023-03-19T21:08:39.364Z,92.60
2023-03-19T21:11:11.678Z,90.40
2023-03-19T21:13:38.647Z,94.20
2023-03-19T21:16:06.046Z,103.00
2023-03-19T21:18:32.914Z,102.50
2023-03-19T21:21:00.151Z,93.60
2023-03-19T21:23:35.006Z,92.70
2023-03-19T21:26:17.119Z,89.20
2023-03-19T21:28:46.850Z,88.70
2023-03-19T21:31:18.919Z,89.80
2023-03-19T21:33:47.821Z,93.40
2023-03-19T21:36:16.018Z,84.30
2023-03-19T21:38:43.519Z,85.30
2023-03-19T21:41:26.682Z,80.10
2023-03-19T21:43:57.561Z,76.30
2023-03-19T21:46:27.975Z,81.00
2023-03-19T21:48:56.476Z,88.30
2023-03-19T21:51:25.490Z,89.40
2023-03-19T21:53:52.857Z,97.40
2023-03-19T21:56:25.934Z,109.00
2023-03-19T21:58:54.314Z,106.30
2023-03-19T22:01:24.954Z,95.80
2023-03-19T22:03:53.587Z,91.40
2023-03-19T22:06:22.394Z,89.40
2023-03-19T22:08:51.374Z,92.90
2023-03-19T22:11:27.024Z,92.80
2023-03-19T22:13:56.086Z,89.30
2023-03-19T22:16:25.140Z,82.80
2023-03-19T22:18:53.611Z,80.00
2023-03-19T22:21:22.749Z,79.00
2023-03-19T22:23:51.602Z,75.70
2023-03-19T22:26:28.824Z,83.70
2023-03-19T22:28:58.893Z,86.50
2023-03-19T22:31:26.586Z,73.70
2023-03-19T22:33:54.205Z,75.10
2023-03-19T22:36:21.384Z,77.90
2023-03-19T22:38:55.056Z,75.10
2023-03-19T22:41:34.389Z,70.90
2023-03-19T22:44:04.936Z,75.80
2023-03-19T22:46:33.093Z,81.80
2023-03-19T22:49:00.101Z,80.40
2023-03-19T22:51:28.168Z,81.30
2023-03-19T22:53:56.133Z,83.70
2023-03-19T22:56:23.522Z,91.50
2023-03-19T22:58:50.864Z,78.90
2023-03-19T23:01:21.478Z,82.70
2023-03-19T23:03:50.054Z,82.90
2023-03-19T23:06:29.749Z,84.10
2023-03-19T23:08:58.539Z,81.60
2023-03-19T23:11:25.719Z,74.50
2023-03-19T23:13:54.649Z,75.80
2023-03-19T23:16:25.331Z,74.70
2023-03-19T23:21:21.573Z,78.00
2023-03-19T23:23:48.926Z,73.00
2023-03-19T23:26:33.634Z,73.70
2023-03-19T23:29:06.653Z,79.80
2023-03-19T23:31:34.554Z,76.50
2023-03-19T23:34:01.726Z,76.00
2023-03-19T23:36:28.626Z,81.90
2023-03-19T23:38:56.659Z,85.00
2023-03-19T23:41:26.838Z,80.20
2023-03-19T23:43:54.998Z,79.10
2023-03-19T23:46:22.414Z,87.00
2023-03-19T23:48:49.412Z,81.10
2023-03-19T23:51:17.162Z,86.50
2023-03-19T23:53:44.642Z,79.60
2023-03-19T23:56:17.235Z,73.20
2023-03-19T23:58:44.297Z,76.20
